createdAt,value
2019-03-26T00:01:04.684Z,9.60
2019-03-26T00:03:33.859Z,15.60
2019-03-26T00:06:03.301Z,15.50
2019-03-26T00:08:33.457Z,16.67
2019-03-26T00:11:03.485Z,8.83
2019-03-26T00:13:32.922Z,10.40
2019-03-26T00:16:03.030Z,10.33
2019-03-26T00:18:33.128Z,15.67
2019-03-26T00:21:03.485Z,8.10
2019-03-26T00:23:33.605Z,9.53
2019-03-26T00:26:03.681Z,14.87
2019-03-26T00:28:33.105Z,7.93
2019-03-26T00:31:03.207Z,9.60
2019-03-26T00:33:36.681Z,9.87
2019-03-26T00:36:05.281Z,7.10
2019-03-26T00:38:35.449Z,6.83
2019-03-26T00:41:04.645Z,9.73
2019-03-26T00:43:35.066Z,15.80
2019-03-26T00:46:05.158Z,10.77
2019-03-26T00:48:34.292Z,6.40
2019-03-26T00:51:04.413Z,14.50
2019-03-26T00:53:34.489Z,10.20
2019-03-26T00:56:04.645Z,12.47
2019-03-26T00:58:35.031Z,12.07
2019-03-26T01:01:05.102Z,7.03
2019-03-26T01:03:34.260Z,7.73
2019-03-26T01:06:04.642Z,10.33
2019-03-26T01:08:35.614Z,9.53
2019-03-26T01:11:06.002Z,8.17
2019-03-26T01:13:37.363Z,7.90
2019-03-26T01:16:07.437Z,10.77
2019-03-26T01:18:37.538Z,11.23
2019-03-26T01:21:07.923Z,14.53
2019-03-26T01:23:38.030Z,10.30
2019-03-26T01:26:07.185Z,12.43
2019-03-26T01:28:41.353Z,8.90
2019-03-26T01:31:11.453Z,12.60
2019-03-26T01:33:41.651Z,11.17
2019-03-26T01:36:11.073Z,11.77
2019-03-26T01:38:41.290Z,8.53
2019-03-26T01:41:11.388Z,9.03
2019-03-26T01:43:41.734Z,10.23
2019-03-26T01:46:10.879Z,14.13
2019-03-26T01:48:40.977Z,9.87
2019-03-26T01:51:10.401Z,13.50
2019-03-26T01:53:40.562Z,8.33
2019-03-26T01:56:10.757Z,8.03
2019-03-26T01:58:41.373Z,11.47
2019-03-26T02:01:11.446Z,9.13
2019-03-26T02:03:41.677Z,6.63
2019-03-26T02:06:12.042Z,4.93
2019-03-26T02:08:41.443Z,13.00
2019-03-26T02:11:12.414Z,8.57
2019-03-26T02:13:43.769Z,6.87
2019-03-26T02:16:13.873Z,8.67
2019-03-26T02:18:44.824Z,12.03
2019-03-26T02:21:16.282Z,10.77
2019-03-26T02:23:46.377Z,6.73
2019-03-26T02:26:16.477Z,9.57
2019-03-26T02:28:46.868Z,9.50
2019-03-26T02:31:17.065Z,10.80
2019-03-26T02:33:47.315Z,12.00
2019-03-26T02:36:17.669Z,8.17
2019-03-26T02:38:46.838Z,8.07
2019-03-26T02:41:16.943Z,9.07
2019-03-26T02:43:47.287Z,12.17
2019-03-26T02:46:17.383Z,13.93
2019-03-26T02:48:47.462Z,9.43
2019-03-26T02:51:17.815Z,9.90
2019-03-26T02:53:47.890Z,9.10
2019-03-26T02:56:17.061Z,8.53
2019-03-26T02:58:47.413Z,8.13
2019-03-26T03:01:17.479Z,8.33
2019-03-26T03:03:47.570Z,7.93
2019-03-26T03:06:17.935Z,9.07
2019-03-26T03:08:48.015Z,11.50
2019-03-26T03:11:17.181Z,12.33
2019-03-26T03:13:47.594Z,11.63
2019-03-26T03:16:17.702Z,12.67
2019-03-26T03:18:46.885Z,11.97
2019-03-26T03:21:17.242Z,10.10
2019-03-26T03:23:47.326Z,11.47
2019-03-26T03:26:16.526Z,12.73
2019-03-26T03:28:46.635Z,13.77
2019-03-26T03:31:15.779Z,7.63
2019-03-26T03:33:45.865Z,11.00
2019-03-26T03:36:16.205Z,12.03
2019-03-26T03:38:45.395Z,10.80
2019-03-26T03:41:15.472Z,15.27
2019-03-26T03:43:45.822Z,12.13
2019-03-26T03:46:15.003Z,14.10
2019-03-26T03:48:46.419Z,9.67
2019-03-26T03:51:19.431Z,10.30
2019-03-26T03:53:49.494Z,13.87
2019-03-26T03:56:22.717Z,11.13
2019-03-26T03:58:52.906Z,8.90
2019-03-26T04:01:23.263Z,10.13
2019-03-26T04:03:53.370Z,10.40
2019-03-26T04:06:23.458Z,12.20
2019-03-26T04:08:53.819Z,10.87
2019-03-26T04:11:23.922Z,11.33
2019-03-26T04:13:53.071Z,7.53
2019-03-26T04:16:24.283Z,8.57
2019-03-26T04:18:54.484Z,12.83
2019-03-26T04:21:24.533Z,12.93
2019-03-26T04:23:54.885Z,17.13
2019-03-26T04:26:24.981Z,8.03
2019-03-26T04:28:55.064Z,11.40
2019-03-26T04:31:26.309Z,12.70
2019-03-26T04:33:56.379Z,19.00
2019-03-26T04:36:26.651Z,8.70
2019-03-26T04:38:57.086Z,12.10
2019-03-26T04:41:27.193Z,11.43
2019-03-26T04:43:57.295Z,7.90
2019-03-26T04:46:26.711Z,12.60
2019-03-26T04:48:55.881Z,10.17
2019-03-26T04:51:25.039Z,13.40
2019-03-26T04:53:55.381Z,12.50
2019-03-26T04:56:25.477Z,11.43
2019-03-26T04:58:54.648Z,12.77
2019-03-26T05:01:23.807Z,13.33
2019-03-26T05:03:53.917Z,10.60
2019-03-26T05:06:37.205Z,10.73
2019-03-26T05:08:56.020Z,12.53
2019-03-26T05:11:26.094Z,13.53
2019-03-26T05:13:55.504Z,10.27
2019-03-26T05:16:25.615Z,16.07
2019-03-26T05:18:54.842Z,11.10
2019-03-26T05:21:24.273Z,13.27
2019-03-26T05:23:54.366Z,10.73
2019-03-26T05:26:24.470Z,7.00
2019-03-26T05:28:55.013Z,11.40
2019-03-26T05:31:24.181Z,12.37
2019-03-26T05:33:53.344Z,15.23
2019-03-26T05:36:23.684Z,11.80
2019-03-26T05:38:53.813Z,16.20
2019-03-26T05:41:23.933Z,17.80
2019-03-26T05:43:53.113Z,13.27
2019-03-26T05:46:22.301Z,8.00
2019-03-26T05:48:53.090Z,13.40
2019-03-26T05:51:22.489Z,12.47
2019-03-26T05:53:52.608Z,19.83
2019-03-26T05:56:21.753Z,9.93
2019-03-26T05:58:52.141Z,17.10
2019-03-26T06:01:22.226Z,15.87
2019-03-26T06:03:52.299Z,11.90
2019-03-26T06:06:22.680Z,14.83
2019-03-26T06:08:52.765Z,11.73
2019-03-26T06:11:21.926Z,17.03
2019-03-26T06:13:51.575Z,12.07
2019-03-26T06:16:21.666Z,15.10
2019-03-26T06:18:51.966Z,9.90
2019-03-26T06:21:23.179Z,15.60
2019-03-26T06:23:53.831Z,19.13
2019-03-26T06:26:23.167Z,9.63
2019-03-26T06:28:53.359Z,10.33
2019-03-26T06:31:22.683Z,12.70
2019-03-26T06:33:58.410Z,13.93
2019-03-26T06:36:28.645Z,16.30
2019-03-26T06:38:58.753Z,7.67
2019-03-26T06:41:28.221Z,13.70
2019-03-26T06:43:58.822Z,14.50
2019-03-26T06:46:28.916Z,13.60
2019-03-26T06:48:59.409Z,16.40
2019-03-26T06:51:29.506Z,19.23
2019-03-26T06:53:59.662Z,12.37
2019-03-26T06:56:29.080Z,12.47
2019-03-26T06:58:58.243Z,15.17
2019-03-26T07:01:28.410Z,10.77
2019-03-26T07:03:58.914Z,17.73
2019-03-26T07:06:29.025Z,14.23
2019-03-26T07:08:59.105Z,14.00
2019-03-26T07:11:28.545Z,13.67
2019-03-26T07:13:58.653Z,12.27
2019-03-26T07:16:28.745Z,11.37
2019-03-26T07:18:59.119Z,9.60
2019-03-26T07:21:29.202Z,12.37
2019-03-26T07:24:00.189Z,13.23
2019-03-26T07:26:30.295Z,13.70
2019-03-26T07:28:59.521Z,13.70
2019-03-26T07:31:29.804Z,11.23
2019-03-26T07:33:59.947Z,16.73
2019-03-26T07:36:30.047Z,15.67
2019-03-26T07:38:59.505Z,8.80
2019-03-26T07:41:29.589Z,11.10
2019-03-26T07:43:58.754Z,13.20
2019-03-26T07:46:28.900Z,9.63
2019-03-26T07:48:58.984Z,10.13
2019-03-26T07:51:29.202Z,13.83
2019-03-26T07:53:59.491Z,11.80
2019-03-26T07:56:29.604Z,15.70
2019-03-26T07:58:58.762Z,14.87
2019-03-26T08:01:29.130Z,12.23
2019-03-26T08:03:59.221Z,8.83
2019-03-26T08:06:28.381Z,11.47
2019-03-26T08:08:58.767Z,13.33
2019-03-26T08:11:28.864Z,11.97
2019-03-26T08:13:58.079Z,12.97
2019-03-26T08:16:27.492Z,8.10
2019-03-26T08:18:57.580Z,10.70
2019-03-26T08:21:27.677Z,8.73
2019-03-26T08:23:58.065Z,10.57
2019-03-26T08:26:29.829Z,8.47
2019-03-26T08:29:01.092Z,7.87
2019-03-26T08:31:31.466Z,9.43
2019-03-26T08:34:00.663Z,9.40
2019-03-26T08:36:29.845Z,10.27
2019-03-26T08:39:00.290Z,10.17
2019-03-26T08:41:29.513Z,9.47
2019-03-26T08:43:59.595Z,12.83
2019-03-26T08:46:29.970Z,10.87
2019-03-26T08:48:59.147Z,13.00
2019-03-26T08:51:28.306Z,7.30
2019-03-26T08:53:58.694Z,11.50
2019-03-26T08:56:27.841Z,5.40
2019-03-26T08:58:57.026Z,10.40
2019-03-26T09:01:27.381Z,10.33
2019-03-26T09:03:57.478Z,13.63
2019-03-26T09:06:27.586Z,8.80
2019-03-26T09:08:58.046Z,7.57
2019-03-26T09:11:28.186Z,11.93
2019-03-26T09:13:59.757Z,13.17
2019-03-26T09:16:29.358Z,17.50
2019-03-26T09:18:58.515Z,8.93
2019-03-26T09:21:27.682Z,17.93
2019-03-26T09:23:58.266Z,10.50
2019-03-26T09:26:28.402Z,14.23
2019-03-26T09:28:57.766Z,16.63
2019-03-26T09:31:28.135Z,8.33
2019-03-26T09:34:00.970Z,8.77
2019-03-26T09:36:31.077Z,15.27
2019-03-26T09:39:01.422Z,20.47
2019-03-26T09:41:33.244Z,13.80
2019-03-26T09:44:03.392Z,11.43
2019-03-26T09:46:32.597Z,9.50
2019-03-26T09:49:02.706Z,10.83
2019-03-26T09:51:33.608Z,12.67
2019-03-26T09:54:03.710Z,14.30
2019-03-26T09:56:33.305Z,12.00
2019-03-26T09:59:02.487Z,9.43
2019-03-26T10:01:31.649Z,7.33
2019-03-26T10:04:02.016Z,10.50
2019-03-26T10:06:31.203Z,7.50
2019-03-26T10:09:01.289Z,7.40
2019-03-26T10:11:31.696Z,11.30
2019-03-26T10:14:01.797Z,7.20
2019-03-26T10:16:30.986Z,7.67
2019-03-26T10:19:00.503Z,6.40
2019-03-26T10:21:29.664Z,8.83
2019-03-26T10:23:59.809Z,8.63
2019-03-26T10:26:30.223Z,5.93
2019-03-26T10:29:13.853Z,10.50
2019-03-26T10:31:32.125Z,10.40
2019-03-26T10:34:01.567Z,9.60
2019-03-26T10:36:31.809Z,7.23
2019-03-26T10:39:05.801Z,14.13
2019-03-26T10:41:34.014Z,14.07
2019-03-26T10:44:04.113Z,10.37
2019-03-26T10:46:34.237Z,8.27
2019-03-26T10:49:03.665Z,12.47
2019-03-26T10:51:32.844Z,11.53
2019-03-26T10:54:02.944Z,11.77
2019-03-26T10:56:34.932Z,9.67
2019-03-26T10:59:05.025Z,13.43
2019-03-26T11:01:35.169Z,13.23
2019-03-26T11:04:07.856Z,7.87
2019-03-26T11:06:38.077Z,16.97
2019-03-26T11:09:20.076Z,5.43
2019-03-26T11:11:41.019Z,12.03
2019-03-26T11:14:11.063Z,12.60
2019-03-26T11:16:40.277Z,7.83
2019-03-26T11:19:12.498Z,8.90
2019-03-26T11:21:42.749Z,7.33
2019-03-26T11:24:12.877Z,7.20
2019-03-26T11:26:44.014Z,12.27
2019-03-26T11:29:14.493Z,8.33
2019-03-26T11:31:44.814Z,9.93
2019-03-26T11:34:15.191Z,6.33
2019-03-26T11:36:45.539Z,8.73
2019-03-26T11:39:15.727Z,9.63
2019-03-26T11:41:45.772Z,10.83
2019-03-26T11:44:16.198Z,8.10
2019-03-26T11:46:46.309Z,9.33
2019-03-26T11:49:15.461Z,8.00
2019-03-26T11:51:46.550Z,9.40
2019-03-26T11:54:16.634Z,11.63
2019-03-26T11:56:47.026Z,10.37
2019-03-26T11:59:16.200Z,9.13
2019-03-26T12:01:45.361Z,11.47
2019-03-26T12:04:15.733Z,5.23
2019-03-26T12:06:45.868Z,9.67
2019-03-26T12:09:16.006Z,6.70
2019-03-26T12:11:46.377Z,8.27
2019-03-26T12:14:15.572Z,8.57
2019-03-26T12:16:45.750Z,8.97
2019-03-26T12:19:17.263Z,8.97
2019-03-26T12:21:47.380Z,8.00
2019-03-26T12:24:17.502Z,9.07
2019-03-26T12:26:47.874Z,6.97
2019-03-26T12:29:18.173Z,8.60
2019-03-26T12:31:48.204Z,10.43
2019-03-26T12:34:18.348Z,7.93
2019-03-26T12:36:47.530Z,9.93
2019-03-26T12:39:17.638Z,8.17
2019-03-26T12:41:48.095Z,8.43
2019-03-26T12:44:18.800Z,12.60
2019-03-26T12:46:48.250Z,11.00
2019-03-26T12:49:18.986Z,6.63
2019-03-26T12:51:49.337Z,7.70
2019-03-26T12:54:19.481Z,11.67
2019-03-26T12:56:49.582Z,8.97
2019-03-26T12:59:20.979Z,6.70
2019-03-26T13:01:50.498Z,7.13
2019-03-26T13:04:20.618Z,7.33
2019-03-26T13:06:50.733Z,10.37
2019-03-26T13:09:21.865Z,10.83
2019-03-26T13:11:51.046Z,8.90
2019-03-26T13:14:22.404Z,9.47
2019-03-26T13:17:00.184Z,9.33
2019-03-26T13:19:30.817Z,11.43
2019-03-26T13:22:00.958Z,6.77
2019-03-26T13:24:31.025Z,7.57
2019-03-26T13:27:01.395Z,16.73
2019-03-26T13:29:31.489Z,11.27
2019-03-26T13:32:00.673Z,6.97
2019-03-26T13:34:31.897Z,11.40
2019-03-26T13:37:01.999Z,8.10
2019-03-26T13:39:32.162Z,6.93
2019-03-26T13:42:04.546Z,10.33
2019-03-26T13:44:34.676Z,14.00
2019-03-26T13:47:04.765Z,6.43
2019-03-26T13:49:35.130Z,7.47
2019-03-26T13:52:05.231Z,6.60
2019-03-26T13:54:34.377Z,6.37
2019-03-26T13:57:04.914Z,18.90
2019-03-26T13:59:35.161Z,9.70
2019-03-26T14:02:05.258Z,7.13
2019-03-26T14:04:35.064Z,9.83
2019-03-26T14:07:05.175Z,8.57
2019-03-26T14:09:34.445Z,10.20
2019-03-26T14:12:05.322Z,11.83
2019-03-26T14:14:35.444Z,9.00
2019-03-26T14:17:05.900Z,8.83
2019-03-26T14:19:36.534Z,7.00
2019-03-26T14:22:07.386Z,7.13
2019-03-26T14:24:37.541Z,10.77
2019-03-26T14:27:08.543Z,7.97
2019-03-26T14:29:38.395Z,5.13
2019-03-26T14:32:08.645Z,7.70
2019-03-26T14:34:40.044Z,8.73
2019-03-26T14:37:10.266Z,5.83
2019-03-26T14:39:40.398Z,12.07
2019-03-26T14:42:10.753Z,10.80
2019-03-26T14:44:41.436Z,12.97
2019-03-26T14:47:11.557Z,12.57
2019-03-26T14:49:44.615Z,9.50
2019-03-26T14:52:13.798Z,12.47
2019-03-26T14:54:48.697Z,7.60
2019-03-26T14:57:18.875Z,11.83
2019-03-26T14:59:48.977Z,13.33
2019-03-26T15:02:19.521Z,9.93
2019-03-26T15:04:49.606Z,10.83
2019-03-26T15:07:19.998Z,9.10
2019-03-26T15:09:49.197Z,9.27
2019-03-26T15:12:19.274Z,8.23
2019-03-26T15:14:48.872Z,6.97
2019-03-26T15:17:18.047Z,11.83
2019-03-26T15:19:48.160Z,6.30
2019-03-26T15:22:18.678Z,11.57
2019-03-26T15:24:50.470Z,8.13
2019-03-26T15:27:20.926Z,6.53
2019-03-26T15:29:51.891Z,5.70
2019-03-26T15:35:16.966Z,8.50
2019-03-26T15:37:52.322Z,6.53
2019-03-26T15:40:27.328Z,8.17
2019-03-26T15:43:01.508Z,8.00
2019-03-26T15:45:32.935Z,8.90
2019-03-26T15:48:14.239Z,5.17
2019-03-26T15:50:51.253Z,5.70
2019-03-26T15:53:22.850Z,7.30
2019-03-26T15:56:01.122Z,8.80
2019-03-26T15:58:34.423Z,7.60
2019-03-26T16:01:13.046Z,12.27
2019-03-26T16:03:51.486Z,11.33
2019-03-26T16:06:22.260Z,9.30
2019-03-26T16:08:54.540Z,8.93
2019-03-26T16:11:35.599Z,10.87
2019-03-26T16:13:58.943Z,9.90
2019-03-26T16:16:31.400Z,10.53
2019-03-26T16:19:13.679Z,7.23
2019-03-26T16:21:46.621Z,9.70
2019-03-26T16:24:18.603Z,8.17
2019-03-26T16:27:01.731Z,12.30
2019-03-26T16:29:32.551Z,11.77
2019-03-26T16:32:02.924Z,8.70
2019-03-26T16:34:36.568Z,10.70
2019-03-26T16:37:05.906Z,9.73
2019-03-26T16:39:36.844Z,7.23
2019-03-26T16:42:13.128Z,10.07
2019-03-26T16:44:44.926Z,9.73
2019-03-26T16:47:47.655Z,6.30
2019-03-26T16:50:22.793Z,11.40
2019-03-26T16:52:54.188Z,11.00
2019-03-26T16:55:26.213Z,10.47
2019-03-26T16:57:55.689Z,9.97
2019-03-26T17:00:38.703Z,12.57
2019-03-26T17:03:13.199Z,8.27
2019-03-26T17:05:42.845Z,7.07
2019-03-26T17:08:17.005Z,9.87
2019-03-26T17:10:55.550Z,9.43
2019-03-26T17:13:25.966Z,9.13
2019-03-26T17:16:01.175Z,8.57
2019-03-26T17:18:39.836Z,15.20
2019-03-26T17:21:20.010Z,12.13
2019-03-26T17:23:53.233Z,11.07
2019-03-26T17:26:27.748Z,9.87
2019-03-26T17:29:02.034Z,13.13
2019-03-26T17:31:32.324Z,9.70
2019-03-26T17:34:04.508Z,10.90
2019-03-26T17:36:36.635Z,11.37
2019-03-26T17:39:10.840Z,9.90
2019-03-26T17:41:44.938Z,8.17
2019-03-26T17:44:15.861Z,13.73
2019-03-26T17:46:49.152Z,13.27
2019-03-26T17:49:22.288Z,10.23
2019-03-26T17:51:55.054Z,11.57
2019-03-26T17:54:29.323Z,7.60
2019-03-26T17:56:59.900Z,8.23
2019-03-26T17:59:32.854Z,14.73
2019-03-26T18:02:07.608Z,9.20
2019-03-26T18:04:38.722Z,20.33
2019-03-26T18:07:16.253Z,19.90
2019-03-26T18:09:57.261Z,16.33
2019-03-26T18:12:46.680Z,34.33
2019-03-26T18:15:17.840Z,28.37
2019-03-26T18:17:50.579Z,21.77
2019-03-26T18:20:32.391Z,9.03
2019-03-26T18:23:01.907Z,11.60
2019-03-26T18:25:26.548Z,11.93
2019-03-26T18:28:05.512Z,13.23
2019-03-26T18:30:42.572Z,13.73
2019-03-26T18:33:11.610Z,10.50
2019-03-26T18:35:45.162Z,11.80
2019-03-26T18:38:15.629Z,10.63
2019-03-26T18:40:50.109Z,9.07
2019-03-26T18:43:24.354Z,9.70
2019-03-26T18:45:56.823Z,9.83
2019-03-26T18:48:26.865Z,11.50
2019-03-26T18:51:03.283Z,15.40
2019-03-26T18:53:33.263Z,13.33
2019-03-26T18:56:11.869Z,16.13
2019-03-26T18:58:49.057Z,11.60
2019-03-26T19:01:32.812Z,14.33
2019-03-26T19:04:05.623Z,14.57
2019-03-26T19:07:00.538Z,16.27
2019-03-26T19:09:35.320Z,15.80
2019-03-26T19:12:19.426Z,14.13
2019-03-26T19:15:15.931Z,11.67
2019-03-26T19:17:49.042Z,19.93
2019-03-26T19:20:24.908Z,19.37
2019-03-26T19:22:58.217Z,16.23
2019-03-26T19:25:33.171Z,9.00
2019-03-26T19:28:07.935Z,16.80
2019-03-26T19:30:39.647Z,11.63
2019-03-26T19:33:10.199Z,14.77
2019-03-26T19:35:40.513Z,10.67
2019-03-26T19:38:16.931Z,11.63
2019-03-26T19:40:47.194Z,12.87
2019-03-26T19:43:28.067Z,18.03
2019-03-26T19:46:09.805Z,12.20
2019-03-26T19:51:26.755Z,12.07
2019-03-26T19:53:59.735Z,35.47
2019-03-26T19:56:28.986Z,15.93
2019-03-26T19:58:59.253Z,18.73
2019-03-26T20:01:32.203Z,14.50
2019-03-26T20:04:02.440Z,19.93
2019-03-26T20:06:48.395Z,18.13
2019-03-26T20:09:20.195Z,15.63
2019-03-26T20:12:10.943Z,13.23
2019-03-26T20:17:11.488Z,11.83
2019-03-26T20:19:48.480Z,12.30
2019-03-26T20:22:21.569Z,17.30
2019-03-26T20:24:50.834Z,10.93
2019-03-26T20:27:21.071Z,16.60
2019-03-26T20:29:54.781Z,18.33
2019-03-26T20:32:25.167Z,13.70
2019-03-26T20:35:17.358Z,16.30
2019-03-26T20:37:46.915Z,14.93
2019-03-26T20:40:24.439Z,19.37
2019-03-26T20:42:57.970Z,20.77
2019-03-26T20:45:39.351Z,17.03
2019-03-26T20:48:17.383Z,18.53
2019-03-26T20:50:57.211Z,21.90
2019-03-26T20:53:30.799Z,13.10
2019-03-26T20:56:03.155Z,19.13
2019-03-26T20:58:39.689Z,17.37
2019-03-26T21:01:21.901Z,14.67
2019-03-26T21:04:00.899Z,20.97
2019-03-26T21:06:39.590Z,15.93
2019-03-26T21:09:19.349Z,20.63
2019-03-26T21:11:52.592Z,15.93
2019-03-26T21:14:27.215Z,18.63
2019-03-26T21:17:05.806Z,28.93
2019-03-26T21:19:46.306Z,20.73
2019-03-26T21:22:15.582Z,18.47
2019-03-26T21:24:45.855Z,17.17
2019-03-26T21:27:18.113Z,14.13
2019-03-26T21:29:48.834Z,16.07
2019-03-26T21:32:30.822Z,19.77
2019-03-26T21:35:03.426Z,19.10
2019-03-26T21:37:33.715Z,14.93
2019-03-26T21:40:04.030Z,15.57
2019-03-26T21:42:36.442Z,20.10
2019-03-26T21:45:07.368Z,17.13
2019-03-26T21:47:39.943Z,17.20
2019-03-26T21:50:12.971Z,16.87
2019-03-26T21:52:54.106Z,20.43
2019-03-26T21:55:27.267Z,22.57
2019-03-26T21:58:01.708Z,17.03
2019-03-26T22:00:34.508Z,17.90
2019-03-26T22:03:08.094Z,14.13
2019-03-26T22:05:37.259Z,20.23
2019-03-26T22:08:11.868Z,15.83
2019-03-26T22:10:42.225Z,18.63
2019-03-26T22:13:18.334Z,15.93
2019-03-26T22:15:55.899Z,16.00
2019-03-26T22:18:30.567Z,21.97
2019-03-26T22:20:59.761Z,16.50
2019-03-26T22:23:29.803Z,19.80
2019-03-26T22:26:04.359Z,19.40
2019-03-26T22:28:35.503Z,25.33
2019-03-26T22:31:08.595Z,21.07
2019-03-26T22:33:38.942Z,21.97
2019-03-26T22:36:11.867Z,15.90
2019-03-26T22:38:43.093Z,17.73
2019-03-26T22:41:20.095Z,19.90
2019-03-26T22:43:50.683Z,22.30
2019-03-26T22:46:20.761Z,20.93
2019-03-26T22:48:52.077Z,13.50
2019-03-26T22:51:25.384Z,12.60
2019-03-26T22:53:58.264Z,19.57
2019-03-26T22:56:30.474Z,16.10
2019-03-26T22:59:00.516Z,26.90
2019-03-26T23:01:32.831Z,13.43
2019-03-26T23:04:03.164Z,20.13
2019-03-26T23:06:32.329Z,19.77
2019-03-26T23:09:01.512Z,23.57
2019-03-26T23:11:31.823Z,20.97
2019-03-26T23:14:01.854Z,31.43
2019-03-26T23:16:35.631Z,24.67
2019-03-26T23:19:06.015Z,36.60
2019-03-26T23:21:38.296Z,26.77
2019-03-26T23:24:08.363Z,28.83
2019-03-26T23:26:38.749Z,22.63
2019-03-26T23:29:16.220Z,19.90
2019-03-26T23:31:46.486Z,20.47
2019-03-26T23:34:16.798Z,18.40
2019-03-26T23:36:47.130Z,19.43
2019-03-26T23:39:21.807Z,18.33
2019-03-26T23:41:53.469Z,17.63
2019-03-26T23:44:26.246Z,26.67
2019-03-26T23:46:55.207Z,19.37
2019-03-26T23:49:25.506Z,17.97
2019-03-26T23:51:56.391Z,20.67
2019-03-26T23:54:26.483Z,25.47
2019-03-26T23:56:59.855Z,17.73
2019-03-26T23:59:29.874Z,17.30
